sensor_id;sensor_type;location;lat;lon;timestamp;P1;durP1;ratioP1;P2;durP2;ratioP2
57443;SDS011;43289;52.962;6.196;2024-03-25T00:00:38;13.32;;;3.90;;
57443;SDS011;43289;52.962;6.196;2024-03-25T00:03:04;19.15;;;4.63;;
57443;SDS011;43289;52.962;6.196;2024-03-25T00:05:30;10.75;;;2.97;;
57443;SDS011;43289;52.962;6.196;2024-03-25T00:07:57;15.73;;;3.90;;
57443;SDS011;43289;52.962;6.196;2024-03-25T00:10:23;12.50;;;4.03;;
57443;SDS011;43289;52.962;6.196;2024-03-25T00:12:49;14.55;;;4.00;;
57443;SDS011;43289;52.962;6.196;2024-03-25T00:15:19;12.35;;;3.53;;
57443;SDS011;43289;52.962;6.196;2024-03-25T00:17:46;17.10;;;3.67;;
57443;SDS011;43289;52.962;6.196;2024-03-25T00:20:13;15.60;;;4.55;;
57443;SDS011;43289;52.962;6.196;2024-03-25T00:22:40;12.93;;;4.40;;
57443;SDS011;43289;52.962;6.196;2024-03-25T00:25:06;13.32;;;3.72;;
57443;SDS011;43289;52.962;6.196;2024-03-25T00:27:32;14.32;;;3.90;;
57443;SDS011;43289;52.962;6.196;2024-03-25T00:29:58;19.08;;;4.35;;
57443;SDS011;43289;52.962;6.196;2024-03-25T00:32:24;15.35;;;3.92;;
57443;SDS011;43289;52.962;6.196;2024-03-25T00:34:50;13.98;;;4.68;;
57443;SDS011;43289;52.962;6.196;2024-03-25T00:37:16;14.95;;;4.55;;
57443;SDS011;43289;52.962;6.196;2024-03-25T00:39:42;17.60;;;5.25;;
57443;SDS011;43289;52.962;6.196;2024-03-25T00:42:08;12.68;;;4.43;;
57443;SDS011;43289;52.962;6.196;2024-03-25T00:44:34;14.35;;;3.80;;
57443;SDS011;43289;52.962;6.196;2024-03-25T00:47:01;17.65;;;4.40;;
57443;SDS011;43289;52.962;6.196;2024-03-25T00:49:27;14.77;;;4.57;;
57443;SDS011;43289;52.962;6.196;2024-03-25T00:51:53;16.75;;;5.22;;
57443;SDS011;43289;52.962;6.196;2024-03-25T00:54:19;14.82;;;5.05;;
57443;SDS011;43289;52.962;6.196;2024-03-25T00:56:45;14.65;;;4.70;;
57443;SDS011;43289;52.962;6.196;2024-03-25T00:59:11;16.83;;;3.88;;
57443;SDS011;43289;52.962;6.196;2024-03-25T01:01:37;14.02;;;3.38;;
57443;SDS011;43289;52.962;6.196;2024-03-25T01:04:03;15.02;;;4.28;;
57443;SDS011;43289;52.962;6.196;2024-03-25T01:06:29;14.65;;;3.30;;
57443;SDS011;43289;52.962;6.196;2024-03-25T01:08:56;14.00;;;3.50;;
57443;SDS011;43289;52.962;6.196;2024-03-25T01:11:22;14.27;;;4.30;;
57443;SDS011;43289;52.962;6.196;2024-03-25T01:13:48;16.35;;;4.90;;
57443;SDS011;43289;52.962;6.196;2024-03-25T01:16:14;15.00;;;3.58;;
57443;SDS011;43289;52.962;6.196;2024-03-25T01:18:40;15.43;;;3.75;;
57443;SDS011;43289;52.962;6.196;2024-03-25T01:21:06;16.90;;;4.07;;
57443;SDS011;43289;52.962;6.196;2024-03-25T01:23:32;19.63;;;4.88;;
57443;SDS011;43289;52.962;6.196;2024-03-25T01:25:58;15.35;;;3.75;;
57443;SDS011;43289;52.962;6.196;2024-03-25T01:28:25;16.67;;;3.83;;
57443;SDS011;43289;52.962;6.196;2024-03-25T01:30:51;15.07;;;4.18;;
57443;SDS011;43289;52.962;6.196;2024-03-25T01:33:17;15.50;;;4.07;;
57443;SDS011;43289;52.962;6.196;2024-03-25T01:35:43;19.75;;;3.78;;
57443;SDS011;43289;52.962;6.196;2024-03-25T01:38:09;15.75;;;3.90;;
57443;SDS011;43289;52.962;6.196;2024-03-25T01:40:35;13.25;;;3.65;;
57443;SDS011;43289;52.962;6.196;2024-03-25T01:43:07;16.70;;;4.22;;
57443;SDS011;43289;52.962;6.196;2024-03-25T01:45:33;8.43;;;2.72;;
57443;SDS011;43289;52.962;6.196;2024-03-25T01:48:06;19.90;;;3.80;;
57443;SDS011;43289;52.962;6.196;2024-03-25T01:50:33;13.23;;;2.85;;
57443;SDS011;43289;52.962;6.196;2024-03-25T01:53:00;11.05;;;2.90;;
57443;SDS011;43289;52.962;6.196;2024-03-25T01:55:27;16.92;;;4.07;;
57443;SDS011;43289;52.962;6.196;2024-03-25T01:57:54;8.10;;;3.42;;
57443;SDS011;43289;52.962;6.196;2024-03-25T02:00:20;17.85;;;3.92;;
57443;SDS011;43289;52.962;6.196;2024-03-25T02:02:47;14.90;;;4.07;;
57443;SDS011;43289;52.962;6.196;2024-03-25T02:05:13;12.88;;;3.47;;
57443;SDS011;43289;52.962;6.196;2024-03-25T02:07:40;9.38;;;3.40;;
57443;SDS011;43289;52.962;6.196;2024-03-25T02:10:07;16.08;;;4.05;;
57443;SDS011;43289;52.962;6.196;2024-03-25T02:12:40;14.20;;;4.25;;
57443;SDS011;43289;52.962;6.196;2024-03-25T02:15:06;14.70;;;3.88;;
57443;SDS011;43289;52.962;6.196;2024-03-25T02:17:33;12.68;;;2.75;;
57443;SDS011;43289;52.962;6.196;2024-03-25T02:19:59;14.93;;;3.35;;
57443;SDS011;43289;52.962;6.196;2024-03-25T02:22:25;19.38;;;4.70;;
57443;SDS011;43289;52.962;6.196;2024-03-25T02:24:52;15.95;;;4.72;;
57443;SDS011;43289;52.962;6.196;2024-03-25T02:27:18;8.27;;;2.95;;
57443;SDS011;43289;52.962;6.196;2024-03-25T02:29:45;14.13;;;3.78;;
57443;SDS011;43289;52.962;6.196;2024-03-25T02:32:11;12.65;;;3.42;;
57443;SDS011;43289;52.962;6.196;2024-03-25T02:34:39;16.73;;;4.07;;
57443;SDS011;43289;52.962;6.196;2024-03-25T02:37:05;15.27;;;4.53;;
57443;SDS011;43289;52.962;6.196;2024-03-25T02:39:31;14.85;;;3.05;;
57443;SDS011;43289;52.962;6.196;2024-03-25T02:41:58;13.82;;;3.85;;
57443;SDS011;43289;52.962;6.196;2024-03-25T02:44:24;17.92;;;3.95;;
57443;SDS011;43289;52.962;6.196;2024-03-25T02:46:50;16.58;;;3.80;;
57443;SDS011;43289;52.962;6.196;2024-03-25T02:49:17;14.85;;;4.10;;
57443;SDS011;43289;52.962;6.196;2024-03-25T02:51:43;14.95;;;3.60;;
57443;SDS011;43289;52.962;6.196;2024-03-25T02:54:09;14.45;;;3.42;;
57443;SDS011;43289;52.962;6.196;2024-03-25T02:56:35;12.35;;;3.95;;
57443;SDS011;43289;52.962;6.196;2024-03-25T02:59:01;17.23;;;3.72;;
57443;SDS011;43289;52.962;6.196;2024-03-25T03:01:28;15.77;;;2.95;;
57443;SDS011;43289;52.962;6.196;2024-03-25T03:03:54;13.13;;;2.85;;
57443;SDS011;43289;52.962;6.196;2024-03-25T03:06:20;11.80;;;3.72;;
57443;SDS011;43289;52.962;6.196;2024-03-25T03:08:47;14.93;;;3.58;;
57443;SDS011;43289;52.962;6.196;2024-03-25T03:11:13;11.07;;;3.38;;
57443;SDS011;43289;52.962;6.196;2024-03-25T03:13:39;11.93;;;3.85;;
57443;SDS011;43289;52.962;6.196;2024-03-25T03:16:05;19.13;;;4.03;;
57443;SDS011;43289;52.962;6.196;2024-03-25T03:18:31;14.93;;;3.50;;
57443;SDS011;43289;52.962;6.196;2024-03-25T03:20:57;9.48;;;3.40;;
57443;SDS011;43289;52.962;6.196;2024-03-25T03:23:23;10.98;;;3.83;;
57443;SDS011;43289;52.962;6.196;2024-03-25T03:25:49;14.73;;;3.03;;
57443;SDS011;43289;52.962;6.196;2024-03-25T03:28:16;12.15;;;3.40;;
57443;SDS011;43289;52.962;6.196;2024-03-25T03:30:43;10.38;;;3.35;;
57443;SDS011;43289;52.962;6.196;2024-03-25T03:33:09;12.30;;;4.95;;
57443;SDS011;43289;52.962;6.196;2024-03-25T03:35:35;15.15;;;4.50;;
57443;SDS011;43289;52.962;6.196;2024-03-25T03:38:01;14.38;;;4.07;;
57443;SDS011;43289;52.962;6.196;2024-03-25T03:40:28;17.23;;;5.05;;
57443;SDS011;43289;52.962;6.196;2024-03-25T03:42:54;14.73;;;3.78;;
57443;SDS011;43289;52.962;6.196;2024-03-25T03:45:21;13.27;;;3.95;;
57443;SDS011;43289;52.962;6.196;2024-03-25T03:47:47;12.70;;;4.10;;
57443;SDS011;43289;52.962;6.196;2024-03-25T03:50:13;16.08;;;4.03;;
57443;SDS011;43289;52.962;6.196;2024-03-25T03:52:39;19.75;;;4.38;;
57443;SDS011;43289;52.962;6.196;2024-03-25T03:55:05;14.00;;;3.53;;
57443;SDS011;43289;52.962;6.196;2024-03-25T03:57:31;13.57;;;3.55;;
57443;SDS011;43289;52.962;6.196;2024-03-25T03:59:57;12.57;;;3.97;;
57443;SDS011;43289;52.962;6.196;2024-03-25T04:04:53;17.52;;;4.78;;
57443;SDS011;43289;52.962;6.196;2024-03-25T04:07:20;13.48;;;3.45;;
57443;SDS011;43289;52.962;6.196;2024-03-25T04:09:51;14.07;;;3.83;;
57443;SDS011;43289;52.962;6.196;2024-03-25T04:12:17;16.35;;;4.18;;
57443;SDS011;43289;52.962;6.196;2024-03-25T04:14:46;14.23;;;4.32;;
57443;SDS011;43289;52.962;6.196;2024-03-25T04:17:12;12.52;;;3.90;;
57443;SDS011;43289;52.962;6.196;2024-03-25T04:19:38;14.65;;;3.70;;
57443;SDS011;43289;52.962;6.196;2024-03-25T04:22:04;10.93;;;3.00;;
57443;SDS011;43289;52.962;6.196;2024-03-25T04:24:31;13.77;;;4.00;;
57443;SDS011;43289;52.962;6.196;2024-03-25T04:26:59;12.90;;;3.17;;
57443;SDS011;43289;52.962;6.196;2024-03-25T04:29:25;19.85;;;3.72;;
57443;SDS011;43289;52.962;6.196;2024-03-25T04:31:51;11.85;;;3.67;;
57443;SDS011;43289;52.962;6.196;2024-03-25T04:34:17;9.77;;;3.10;;
57443;SDS011;43289;52.962;6.196;2024-03-25T04:36:45;16.20;;;3.47;;
57443;SDS011;43289;52.962;6.196;2024-03-25T04:39:12;14.63;;;3.42;;
57443;SDS011;43289;52.962;6.196;2024-03-25T04:41:38;11.43;;;3.13;;
57443;SDS011;43289;52.962;6.196;2024-03-25T04:44:04;16.58;;;3.88;;
57443;SDS011;43289;52.962;6.196;2024-03-25T04:46:30;15.82;;;4.00;;
57443;SDS011;43289;52.962;6.196;2024-03-25T04:48:56;15.05;;;3.38;;
57443;SDS011;43289;52.962;6.196;2024-03-25T04:51:22;16.83;;;3.30;;
57443;SDS011;43289;52.962;6.196;2024-03-25T04:53:48;15.23;;;3.17;;
57443;SDS011;43289;52.962;6.196;2024-03-25T04:56:14;13.43;;;3.53;;
57443;SDS011;43289;52.962;6.196;2024-03-25T04:58:40;15.23;;;4.05;;
57443;SDS011;43289;52.962;6.196;2024-03-25T05:01:06;14.63;;;3.97;;
57443;SDS011;43289;52.962;6.196;2024-03-25T05:03:32;14.85;;;4.43;;
57443;SDS011;43289;52.962;6.196;2024-03-25T05:05:58;12.32;;;2.83;;
57443;SDS011;43289;52.962;6.196;2024-03-25T05:08:24;15.05;;;3.78;;
57443;SDS011;43289;52.962;6.196;2024-03-25T05:10:50;12.15;;;3.60;;
57443;SDS011;43289;52.962;6.196;2024-03-25T05:13:16;9.88;;;3.10;;
57443;SDS011;43289;52.962;6.196;2024-03-25T05:15:49;11.05;;;2.97;;
57443;SDS011;43289;52.962;6.196;2024-03-25T05:18:16;11.40;;;3.45;;
57443;SDS011;43289;52.962;6.196;2024-03-25T05:20:42;10.85;;;2.95;;
57443;SDS011;43289;52.962;6.196;2024-03-25T05:23:08;14.90;;;2.90;;
57443;SDS011;43289;52.962;6.196;2024-03-25T05:25:35;15.63;;;4.10;;
57443;SDS011;43289;52.962;6.196;2024-03-25T05:28:01;12.05;;;3.58;;
57443;SDS011;43289;52.962;6.196;2024-03-25T05:30:27;14.35;;;4.55;;
57443;SDS011;43289;52.962;6.196;2024-03-25T05:32:53;10.98;;;3.92;;
57443;SDS011;43289;52.962;6.196;2024-03-25T05:35:19;14.82;;;4.18;;
57443;SDS011;43289;52.962;6.196;2024-03-25T05:37:46;16.85;;;4.20;;
57443;SDS011;43289;52.962;6.196;2024-03-25T05:40:12;14.02;;;3.60;;
57443;SDS011;43289;52.962;6.196;2024-03-25T05:42:40;15.10;;;3.67;;
57443;SDS011;43289;52.962;6.196;2024-03-25T05:45:06;16.98;;;4.15;;
57443;SDS011;43289;52.962;6.196;2024-03-25T05:47:34;17.02;;;4.50;;
57443;SDS011;43289;52.962;6.196;2024-03-25T05:50:00;16.17;;;4.03;;
57443;SDS011;43289;52.962;6.196;2024-03-25T05:52:29;14.27;;;4.53;;
57443;SDS011;43289;52.962;6.196;2024-03-25T05:54:55;17.52;;;4.47;;
57443;SDS011;43289;52.962;6.196;2024-03-25T05:57:21;16.42;;;3.88;;
57443;SDS011;43289;52.962;6.196;2024-03-25T05:59:47;12.65;;;3.50;;
57443;SDS011;43289;52.962;6.196;2024-03-25T06:02:13;11.80;;;3.15;;
57443;SDS011;43289;52.962;6.196;2024-03-25T06:04:39;17.23;;;3.90;;
57443;SDS011;43289;52.962;6.196;2024-03-25T06:07:05;9.43;;;3.95;;
57443;SDS011;43289;52.962;6.196;2024-03-25T06:09:34;9.82;;;3.42;;
57443;SDS011;43289;52.962;6.196;2024-03-25T06:12:00;11.98;;;3.42;;
57443;SDS011;43289;52.962;6.196;2024-03-25T06:14:26;16.70;;;4.97;;
57443;SDS011;43289;52.962;6.196;2024-03-25T06:16:52;11.05;;;4.00;;
57443;SDS011;43289;52.962;6.196;2024-03-25T06:19:19;10.13;;;2.70;;
57443;SDS011;43289;52.962;6.196;2024-03-25T06:21:45;10.88;;;3.15;;
57443;SDS011;43289;52.962;6.196;2024-03-25T06:24:11;9.60;;;3.25;;
57443;SDS011;43289;52.962;6.196;2024-03-25T06:26:37;15.43;;;3.45;;
57443;SDS011;43289;52.962;6.196;2024-03-25T06:29:03;11.93;;;3.47;;
57443;SDS011;43289;52.962;6.196;2024-03-25T06:31:29;12.60;;;3.38;;
57443;SDS011;43289;52.962;6.196;2024-03-25T06:34:13;11.40;;;3.33;;
57443;SDS011;43289;52.962;6.196;2024-03-25T06:36:42;9.25;;;2.92;;
57443;SDS011;43289;52.962;6.196;2024-03-25T06:39:08;13.30;;;4.57;;
57443;SDS011;43289;52.962;6.196;2024-03-25T06:41:34;12.45;;;3.38;;
57443;SDS011;43289;52.962;6.196;2024-03-25T06:44:00;14.95;;;4.47;;
57443;SDS011;43289;52.962;6.196;2024-03-25T06:46:26;14.43;;;5.80;;
57443;SDS011;43289;52.962;6.196;2024-03-25T06:48:53;14.88;;;4.75;;
57443;SDS011;43289;52.962;6.196;2024-03-25T06:51:19;12.82;;;4.22;;
57443;SDS011;43289;52.962;6.196;2024-03-25T06:53:45;12.27;;;3.70;;
57443;SDS011;43289;52.962;6.196;2024-03-25T06:56:11;11.07;;;4.13;;
57443;SDS011;43289;52.962;6.196;2024-03-25T06:58:37;13.93;;;4.40;;
57443;SDS011;43289;52.962;6.196;2024-03-25T07:01:04;11.85;;;4.15;;
57443;SDS011;43289;52.962;6.196;2024-03-25T07:03:30;14.32;;;3.80;;
57443;SDS011;43289;52.962;6.196;2024-03-25T07:05:56;12.93;;;3.85;;
57443;SDS011;43289;52.962;6.196;2024-03-25T07:08:25;18.30;;;4.15;;
57443;SDS011;43289;52.962;6.196;2024-03-25T07:10:51;8.85;;;2.60;;
57443;SDS011;43289;52.962;6.196;2024-03-25T07:13:17;19.48;;;3.97;;
57443;SDS011;43289;52.962;6.196;2024-03-25T07:15:43;9.98;;;3.45;;
57443;SDS011;43289;52.962;6.196;2024-03-25T07:18:09;14.48;;;5.47;;
57443;SDS011;43289;52.962;6.196;2024-03-25T07:20:38;13.77;;;3.42;;
57443;SDS011;43289;52.962;6.196;2024-03-25T07:23:04;11.65;;;3.50;;
57443;SDS011;43289;52.962;6.196;2024-03-25T07:25:30;10.52;;;2.60;;
57443;SDS011;43289;52.962;6.196;2024-03-25T07:27:56;13.77;;;2.80;;
57443;SDS011;43289;52.962;6.196;2024-03-25T07:30:22;10.50;;;2.88;;
57443;SDS011;43289;52.962;6.196;2024-03-25T07:32:56;12.13;;;3.47;;
57443;SDS011;43289;52.962;6.196;2024-03-25T07:35:22;13.88;;;3.30;;
57443;SDS011;43289;52.962;6.196;2024-03-25T07:37:48;9.30;;;2.53;;
57443;SDS011;43289;52.962;6.196;2024-03-25T07:40:16;12.82;;;2.92;;
57443;SDS011;43289;52.962;6.196;2024-03-25T07:42:42;13.18;;;3.13;;
57443;SDS011;43289;52.962;6.196;2024-03-25T07:45:08;9.88;;;2.70;;
57443;SDS011;43289;52.962;6.196;2024-03-25T07:47:34;11.18;;;2.72;;
57443;SDS011;43289;52.962;6.196;2024-03-25T07:50:01;7.35;;;2.85;;
57443;SDS011;43289;52.962;6.196;2024-03-25T07:52:27;7.25;;;2.30;;
57443;SDS011;43289;52.962;6.196;2024-03-25T07:54:53;14.02;;;3.58;;
57443;SDS011;43289;52.962;6.196;2024-03-25T07:57:20;10.75;;;2.70;;
57443;SDS011;43289;52.962;6.196;2024-03-25T07:59:46;11.45;;;3.20;;
57443;SDS011;43289;52.962;6.196;2024-03-25T08:02:12;9.93;;;2.38;;
57443;SDS011;43289;52.962;6.196;2024-03-25T08:04:38;8.43;;;2.90;;
57443;SDS011;43289;52.962;6.196;2024-03-25T08:07:04;9.73;;;2.35;;
57443;SDS011;43289;52.962;6.196;2024-03-25T08:09:30;11.77;;;2.55;;
57443;SDS011;43289;52.962;6.196;2024-03-25T08:11:56;9.23;;;2.65;;
57443;SDS011;43289;52.962;6.196;2024-03-25T08:14:22;8.88;;;2.50;;
57443;SDS011;43289;52.962;6.196;2024-03-25T08:16:49;7.22;;;2.17;;
57443;SDS011;43289;52.962;6.196;2024-03-25T08:19:15;12.18;;;2.78;;
57443;SDS011;43289;52.962;6.196;2024-03-25T08:21:41;12.70;;;2.95;;
57443;SDS011;43289;52.962;6.196;2024-03-25T08:24:08;9.48;;;2.10;;
57443;SDS011;43289;52.962;6.196;2024-03-25T08:26:34;8.52;;;2.45;;
57443;SDS011;43289;52.962;6.196;2024-03-25T08:29:00;9.52;;;2.55;;
57443;SDS011;43289;52.962;6.196;2024-03-25T08:31:26;10.40;;;2.95;;
57443;SDS011;43289;52.962;6.196;2024-03-25T08:33:52;11.95;;;3.30;;
57443;SDS011;43289;52.962;6.196;2024-03-25T08:36:18;15.23;;;2.95;;
57443;SDS011;43289;52.962;6.196;2024-03-25T08:38:44;14.45;;;3.00;;
57443;SDS011;43289;52.962;6.196;2024-03-25T08:41:10;12.80;;;3.08;;
57443;SDS011;43289;52.962;6.196;2024-03-25T08:43:36;12.82;;;2.47;;
57443;SDS011;43289;52.962;6.196;2024-03-25T08:46:02;9.95;;;2.75;;
57443;SDS011;43289;52.962;6.196;2024-03-25T08:48:29;15.70;;;3.25;;
57443;SDS011;43289;52.962;6.196;2024-03-25T08:50:55;19.10;;;3.75;;
57443;SDS011;43289;52.962;6.196;2024-03-25T08:53:21;13.00;;;4.18;;
57443;SDS011;43289;52.962;6.196;2024-03-25T08:55:48;9.77;;;3.22;;
57443;SDS011;43289;52.962;6.196;2024-03-25T08:58:14;8.90;;;2.30;;
57443;SDS011;43289;52.962;6.196;2024-03-25T09:00:40;13.23;;;2.72;;
57443;SDS011;43289;52.962;6.196;2024-03-25T09:03:07;13.50;;;3.13;;
57443;SDS011;43289;52.962;6.196;2024-03-25T09:05:33;8.68;;;2.55;;
57443;SDS011;43289;52.962;6.196;2024-03-25T09:07:59;11.88;;;3.03;;
57443;SDS011;43289;52.962;6.196;2024-03-25T09:10:26;13.55;;;4.07;;
57443;SDS011;43289;52.962;6.196;2024-03-25T09:13:10;14.07;;;2.90;;
57443;SDS011;43289;52.962;6.196;2024-03-25T09:15:36;12.25;;;3.90;;
57443;SDS011;43289;52.962;6.196;2024-03-25T09:18:02;10.32;;;3.75;;
57443;SDS011;43289;52.962;6.196;2024-03-25T09:20:28;9.55;;;3.20;;
57443;SDS011;43289;52.962;6.196;2024-03-25T09:22:54;10.30;;;2.20;;
57443;SDS011;43289;52.962;6.196;2024-03-25T09:25:20;10.65;;;2.30;;
57443;SDS011;43289;52.962;6.196;2024-03-25T09:27:47;11.88;;;2.50;;
57443;SDS011;43289;52.962;6.196;2024-03-25T09:30:13;8.38;;;2.83;;
57443;SDS011;43289;52.962;6.196;2024-03-25T09:32:40;13.77;;;2.65;;
57443;SDS011;43289;52.962;6.196;2024-03-25T09:35:06;10.85;;;2.67;;
57443;SDS011;43289;52.962;6.196;2024-03-25T09:37:32;14.10;;;2.75;;
57443;SDS011;43289;52.962;6.196;2024-03-25T09:39:59;11.15;;;2.50;;
57443;SDS011;43289;52.962;6.196;2024-03-25T09:42:25;10.05;;;3.08;;
57443;SDS011;43289;52.962;6.196;2024-03-25T09:44:53;12.52;;;3.50;;
57443;SDS011;43289;52.962;6.196;2024-03-25T09:47:19;13.45;;;2.70;;
57443;SDS011;43289;52.962;6.196;2024-03-25T09:49:45;14.10;;;3.83;;
57443;SDS011;43289;52.962;6.196;2024-03-25T09:52:12;9.82;;;2.80;;
57443;SDS011;43289;52.962;6.196;2024-03-25T09:54:38;11.68;;;4.00;;
57443;SDS011;43289;52.962;6.196;2024-03-25T09:57:04;12.20;;;2.80;;
57443;SDS011;43289;52.962;6.196;2024-03-25T09:59:30;8.70;;;2.65;;
57443;SDS011;43289;52.962;6.196;2024-03-25T10:01:57;7.82;;;2.80;;
57443;SDS011;43289;52.962;6.196;2024-03-25T10:04:24;9.70;;;3.00;;
57443;SDS011;43289;52.962;6.196;2024-03-25T10:06:50;11.77;;;3.20;;
57443;SDS011;43289;52.962;6.196;2024-03-25T10:09:19;7.78;;;2.30;;
57443;SDS011;43289;52.962;6.196;2024-03-25T10:11:49;10.38;;;2.20;;
57443;SDS011;43289;52.962;6.196;2024-03-25T10:14:18;10.15;;;2.22;;
57443;SDS011;43289;52.962;6.196;2024-03-25T10:16:45;10.48;;;3.47;;
57443;SDS011;43289;52.962;6.196;2024-03-25T10:19:11;10.38;;;2.40;;
57443;SDS011;43289;52.962;6.196;2024-03-25T10:21:37;8.52;;;2.97;;
57443;SDS011;43289;52.962;6.196;2024-03-25T10:24:06;8.43;;;2.05;;
57443;SDS011;43289;52.962;6.196;2024-03-25T10:26:33;8.02;;;2.22;;
57443;SDS011;43289;52.962;6.196;2024-03-25T10:29:04;11.20;;;3.10;;
57443;SDS011;43289;52.962;6.196;2024-03-25T10:31:31;9.57;;;2.50;;
57443;SDS011;43289;52.962;6.196;2024-03-25T10:33:57;6.68;;;2.45;;
57443;SDS011;43289;52.962;6.196;2024-03-25T10:36:24;9.45;;;2.78;;
57443;SDS011;43289;52.962;6.196;2024-03-25T10:38:54;13.50;;;3.00;;
57443;SDS011;43289;52.962;6.196;2024-03-25T10:41:20;11.27;;;3.28;;
57443;SDS011;43289;52.962;6.196;2024-03-25T10:43:47;11.65;;;2.85;;
57443;SDS011;43289;52.962;6.196;2024-03-25T10:46:23;10.68;;;3.65;;
57443;SDS011;43289;52.962;6.196;2024-03-25T10:49:01;12.85;;;3.08;;
57443;SDS011;43289;52.962;6.196;2024-03-25T10:51:28;7.82;;;2.38;;
57443;SDS011;43289;52.962;6.196;2024-03-25T10:53:55;10.75;;;2.95;;
57443;SDS011;43289;52.962;6.196;2024-03-25T10:56:22;11.32;;;2.50;;
57443;SDS011;43289;52.962;6.196;2024-03-25T10:58:49;8.90;;;2.58;;
57443;SDS011;43289;52.962;6.196;2024-03-25T11:01:16;6.45;;;2.13;;
57443;SDS011;43289;52.962;6.196;2024-03-25T11:03:43;13.40;;;2.78;;
57443;SDS011;43289;52.962;6.196;2024-03-25T11:06:09;7.45;;;2.30;;
57443;SDS011;43289;52.962;6.196;2024-03-25T11:08:36;13.15;;;3.13;;
57443;SDS011;43289;52.962;6.196;2024-03-25T11:11:03;15.27;;;3.15;;
57443;SDS011;43289;52.962;6.196;2024-03-25T11:13:31;6.53;;;2.33;;
57443;SDS011;43289;52.962;6.196;2024-03-25T11:15:57;10.27;;;2.45;;
57443;SDS011;43289;52.962;6.196;2024-03-25T11:18:24;7.88;;;2.28;;
57443;SDS011;43289;52.962;6.196;2024-03-25T11:21:05;10.30;;;2.20;;
57443;SDS011;43289;52.962;6.196;2024-03-25T11:23:41;8.82;;;2.40;;
57443;SDS011;43289;52.962;6.196;2024-03-25T11:26:19;6.68;;;2.17;;
57443;SDS011;43289;52.962;6.196;2024-03-25T11:28:45;8.90;;;2.22;;
57443;SDS011;43289;52.962;6.196;2024-03-25T11:31:11;8.30;;;3.03;;
57443;SDS011;43289;52.962;6.196;2024-03-25T11:33:38;7.63;;;1.92;;
57443;SDS011;43289;52.962;6.196;2024-03-25T11:36:04;10.13;;;2.70;;
57443;SDS011;43289;52.962;6.196;2024-03-25T11:38:31;8.82;;;3.22;;
57443;SDS011;43289;52.962;6.196;2024-03-25T11:40:57;11.27;;;2.35;;
57443;SDS011;43289;52.962;6.196;2024-03-25T11:43:23;5.80;;;1.85;;
57443;SDS011;43289;52.962;6.196;2024-03-25T11:45:50;11.68;;;2.10;;
57443;SDS011;43289;52.962;6.196;2024-03-25T11:48:18;9.10;;;2.08;;
57443;SDS011;43289;52.962;6.196;2024-03-25T11:50:45;11.85;;;3.10;;
57443;SDS011;43289;52.962;6.196;2024-03-25T11:53:12;6.22;;;2.10;;
57443;SDS011;43289;52.962;6.196;2024-03-25T11:55:38;9.15;;;2.45;;
57443;SDS011;43289;52.962;6.196;2024-03-25T11:58:05;8.05;;;1.80;;
57443;SDS011;43289;52.962;6.196;2024-03-25T12:00:31;8.20;;;2.20;;
57443;SDS011;43289;52.962;6.196;2024-03-25T12:02:57;7.80;;;2.05;;
57443;SDS011;43289;52.962;6.196;2024-03-25T12:05:23;8.05;;;2.35;;
57443;SDS011;43289;52.962;6.196;2024-03-25T12:07:49;8.88;;;2.42;;
57443;SDS011;43289;52.962;6.196;2024-03-25T12:10:15;8.05;;;2.40;;
57443;SDS011;43289;52.962;6.196;2024-03-25T12:13:00;8.47;;;1.50;;
57443;SDS011;43289;52.962;6.196;2024-03-25T12:15:26;9.38;;;2.58;;
57443;SDS011;43289;52.962;6.196;2024-03-25T12:17:52;8.38;;;2.20;;
57443;SDS011;43289;52.962;6.196;2024-03-25T12:20:19;4.70;;;1.50;;
57443;SDS011;43289;52.962;6.196;2024-03-25T12:22:45;6.57;;;2.40;;
57443;SDS011;43289;52.962;6.196;2024-03-25T12:25:11;9.38;;;2.03;;
57443;SDS011;43289;52.962;6.196;2024-03-25T12:27:38;5.95;;;1.83;;
57443;SDS011;43289;52.962;6.196;2024-03-25T12:30:06;6.32;;;1.95;;
57443;SDS011;43289;52.962;6.196;2024-03-25T12:32:39;8.43;;;1.90;;
57443;SDS011;43289;52.962;6.196;2024-03-25T12:35:09;9.27;;;2.42;;
57443;SDS011;43289;52.962;6.196;2024-03-25T12:37:36;6.90;;;1.73;;
57443;SDS011;43289;52.962;6.196;2024-03-25T12:40:02;7.97;;;2.25;;
57443;SDS011;43289;52.962;6.196;2024-03-25T12:42:30;5.53;;;1.95;;
57443;SDS011;43289;52.962;6.196;2024-03-25T12:44:56;6.70;;;2.15;;
57443;SDS011;43289;52.962;6.196;2024-03-25T12:47:22;6.07;;;1.65;;
57443;SDS011;43289;52.962;6.196;2024-03-25T12:49:48;6.35;;;1.55;;
57443;SDS011;43289;52.962;6.196;2024-03-25T12:52:14;6.68;;;2.05;;
57443;SDS011;43289;52.962;6.196;2024-03-25T12:54:40;6.35;;;1.90;;
57443;SDS011;43289;52.962;6.196;2024-03-25T12:57:09;7.80;;;2.05;;
57443;SDS011;43289;52.962;6.196;2024-03-25T12:59:35;10.10;;;2.72;;
57443;SDS011;43289;52.962;6.196;2024-03-25T13:02:01;6.82;;;1.98;;
57443;SDS011;43289;52.962;6.196;2024-03-25T13:04:28;6.75;;;1.88;;
57443;SDS011;43289;52.962;6.196;2024-03-25T13:06:54;7.63;;;1.80;;
57443;SDS011;43289;52.962;6.196;2024-03-25T13:09:20;7.63;;;2.00;;
57443;SDS011;43289;52.962;6.196;2024-03-25T13:11:46;8.60;;;2.67;;
57443;SDS011;43289;52.962;6.196;2024-03-25T13:14:13;6.60;;;1.92;;
57443;SDS011;43289;52.962;6.196;2024-03-25T13:16:41;10.38;;;2.67;;
57443;SDS011;43289;52.962;6.196;2024-03-25T13:19:07;7.22;;;2.72;;
57443;SDS011;43289;52.962;6.196;2024-03-25T13:21:33;6.30;;;2.20;;
57443;SDS011;43289;52.962;6.196;2024-03-25T13:23:59;8.00;;;2.17;;
57443;SDS011;43289;52.962;6.196;2024-03-25T13:26:25;5.55;;;1.85;;
57443;SDS011;43289;52.962;6.196;2024-03-25T13:28:52;5.55;;;1.52;;
57443;SDS011;43289;52.962;6.196;2024-03-25T13:31:19;6.45;;;2.10;;
57443;SDS011;43289;52.962;6.196;2024-03-25T13:33:45;8.32;;;2.63;;
57443;SDS011;43289;52.962;6.196;2024-03-25T13:36:11;8.18;;;2.17;;
57443;SDS011;43289;52.962;6.196;2024-03-25T13:38:37;6.45;;;2.83;;
57443;SDS011;43289;52.962;6.196;2024-03-25T13:41:03;8.10;;;1.95;;
57443;SDS011;43289;52.962;6.196;2024-03-25T13:43:31;4.30;;;1.73;;
57443;SDS011;43289;52.962;6.196;2024-03-25T13:45:57;5.30;;;2.50;;
57443;SDS011;43289;52.962;6.196;2024-03-25T13:48:23;7.47;;;2.38;;
57443;SDS011;43289;52.962;6.196;2024-03-25T13:50:49;8.65;;;2.58;;
57443;SDS011;43289;52.962;6.196;2024-03-25T13:53:21;7.22;;;2.13;;
57443;SDS011;43289;52.962;6.196;2024-03-25T13:55:47;7.47;;;2.20;;
57443;SDS011;43289;52.962;6.196;2024-03-25T13:58:13;7.90;;;2.50;;
57443;SDS011;43289;52.962;6.196;2024-03-25T14:00:39;8.20;;;2.50;;
57443;SDS011;43289;52.962;6.196;2024-03-25T14:03:05;8.50;;;2.33;;
57443;SDS011;43289;52.962;6.196;2024-03-25T14:05:31;6.40;;;2.10;;
57443;SDS011;43289;52.962;6.196;2024-03-25T14:07:57;6.93;;;1.90;;
57443;SDS011;43289;52.962;6.196;2024-03-25T14:10:23;7.63;;;2.00;;
57443;SDS011;43289;52.962;6.196;2024-03-25T14:12:49;6.28;;;2.05;;
57443;SDS011;43289;52.962;6.196;2024-03-25T14:15:15;7.70;;;1.77;;
57443;SDS011;43289;52.962;6.196;2024-03-25T14:17:41;8.43;;;2.08;;
57443;SDS011;43289;52.962;6.196;2024-03-25T14:20:08;5.30;;;2.10;;
57443;SDS011;43289;52.962;6.196;2024-03-25T14:22:34;9.27;;;2.53;;
57443;SDS011;43289;52.962;6.196;2024-03-25T14:25:01;5.75;;;1.70;;
57443;SDS011;43289;52.962;6.196;2024-03-25T14:27:27;7.20;;;2.33;;
57443;SDS011;43289;52.962;6.196;2024-03-25T14:29:53;4.03;;;1.63;;
57443;SDS011;43289;52.962;6.196;2024-03-25T14:32:19;6.97;;;1.95;;
57443;SDS011;43289;52.962;6.196;2024-03-25T14:34:46;7.13;;;2.33;;
57443;SDS011;43289;52.962;6.196;2024-03-25T14:37:12;5.70;;;1.80;;